createdAt,value
2019-04-13T00:02:41.825Z,3.90
2019-04-13T00:05:46.148Z,4.20
2019-04-13T00:08:19.967Z,4.50
2019-04-13T00:11:12.076Z,4.60
2019-04-13T00:13:43.111Z,4.70
2019-04-13T00:16:13.894Z,4.60
2019-04-13T00:18:44.607Z,4.70
2019-04-13T00:21:17.290Z,4.80
2019-04-13T00:23:47.869Z,4.90
2019-04-13T00:26:18.888Z,4.60
2019-04-13T00:28:49.251Z,4.40
2019-04-13T00:31:19.607Z,4.70
2019-04-13T00:33:49.982Z,4.90
2019-04-13T00:36:20.313Z,5.00
2019-04-13T00:38:50.961Z,4.90
2019-04-13T00:41:21.323Z,4.90
2019-04-13T00:43:52.225Z,4.90
2019-04-13T00:46:22.565Z,4.80
2019-04-13T00:48:52.959Z,4.90
2019-04-13T00:51:23.336Z,5.00
2019-04-13T00:53:53.762Z,5.00
2019-04-13T00:56:24.757Z,4.70
2019-04-13T00:58:55.152Z,3.90
2019-04-13T01:01:25.721Z,4.30
2019-04-13T01:03:56.436Z,4.50
2019-04-13T01:06:27.195Z,4.50
2019-04-13T01:08:58.135Z,4.40
2019-04-13T01:11:28.494Z,4.10
2019-04-13T01:13:59.110Z,3.90
2019-04-13T01:16:29.463Z,4.10
2019-04-13T01:18:59.900Z,4.20
2019-04-13T01:21:30.285Z,4.00
2019-04-13T01:24:01.364Z,4.00
2019-04-13T01:26:32.056Z,4.10
2019-04-13T01:29:02.400Z,4.10
2019-04-13T01:31:34.830Z,4.10
2019-04-13T01:34:05.479Z,4.10
2019-04-13T01:36:36.110Z,4.10
2019-04-13T01:39:08.451Z,4.10
2019-04-13T01:41:38.817Z,4.20
2019-04-13T01:44:09.393Z,4.20
2019-04-13T01:46:42.594Z,4.00
2019-04-13T01:49:12.925Z,4.10
2019-04-13T01:51:43.915Z,3.30
2019-04-13T01:54:14.819Z,3.70
2019-04-13T01:56:45.141Z,3.50
2019-04-13T01:59:15.534Z,3.70
2019-04-13T02:01:53.673Z,3.70
2019-04-13T02:04:37.373Z,3.80
2019-04-13T02:07:22.834Z,3.80
2019-04-13T02:10:27.440Z,3.60
2019-04-13T02:12:58.234Z,3.70
2019-04-13T02:15:44.063Z,3.80
2019-04-13T02:18:14.390Z,3.60
2019-04-13T02:20:44.768Z,3.70
2019-04-13T02:23:15.115Z,3.40
2019-04-13T02:25:45.537Z,3.60
2019-04-13T02:28:15.871Z,3.30
2019-04-13T02:30:46.528Z,3.40
2019-04-13T02:33:16.901Z,3.20
2019-04-13T02:35:47.507Z,3.00
2019-04-13T02:38:26.912Z,3.20
2019-04-13T02:40:57.249Z,3.30
2019-04-13T02:43:27.840Z,3.30
2019-04-13T02:45:58.532Z,3.40
2019-04-13T02:48:29.550Z,2.90
2019-04-13T02:50:59.968Z,3.00
2019-04-13T02:53:30.295Z,3.10
2019-04-13T02:56:01.017Z,2.80
2019-04-13T02:58:31.669Z,2.70
2019-04-13T03:01:02.296Z,2.60
2019-04-13T03:03:33.789Z,2.80
2019-04-13T03:06:04.228Z,3.00
2019-04-13T03:08:34.605Z,3.00
2019-04-13T03:11:17.107Z,3.10
2019-04-13T03:13:47.485Z,3.20
2019-04-13T03:16:39.604Z,3.10
2019-04-13T03:19:20.084Z,3.00
2019-04-13T03:21:50.761Z,2.70
2019-04-13T03:24:21.098Z,3.10
2019-04-13T03:26:54.669Z,3.00
2019-04-13T03:29:25.332Z,2.60
2019-04-13T03:31:56.123Z,3.00
2019-04-13T03:34:26.534Z,2.90
2019-04-13T03:36:56.917Z,2.80
2019-04-13T03:39:27.297Z,2.60
2019-04-13T03:41:57.684Z,2.40
2019-04-13T03:44:28.451Z,2.80
2019-04-13T03:46:59.191Z,3.00
2019-04-13T03:49:29.572Z,2.90
2019-04-13T03:52:00.601Z,3.10
2019-04-13T03:54:33.875Z,3.30
2019-04-13T03:57:04.269Z,3.40
2019-04-13T03:59:34.686Z,3.40
2019-04-13T04:02:05.415Z,3.20
2019-04-13T04:04:36.306Z,2.90
2019-04-13T04:07:06.739Z,3.40
2019-04-13T04:09:37.130Z,3.60
2019-04-13T04:12:10.033Z,3.60
2019-04-13T04:14:40.231Z,3.70
2019-04-13T04:17:11.142Z,3.50
2019-04-13T04:19:41.792Z,3.40
2019-04-13T04:22:12.535Z,3.50
2019-04-13T04:24:43.236Z,3.30
2019-04-13T04:27:14.034Z,3.10
2019-04-13T04:29:44.383Z,3.20
2019-04-13T04:32:14.803Z,3.20
2019-04-13T04:34:45.175Z,3.30
2019-04-13T04:37:15.518Z,3.40
2019-04-13T04:39:46.322Z,3.70
2019-04-13T04:42:17.464Z,3.70
2019-04-13T04:44:47.812Z,3.70
2019-04-13T04:47:18.627Z,3.60
2019-04-13T04:49:49.009Z,3.60
2019-04-13T04:52:19.775Z,3.50
2019-04-13T04:54:50.183Z,3.60
2019-04-13T04:57:20.542Z,3.40
2019-04-13T04:59:51.523Z,3.30
2019-04-13T05:02:22.201Z,3.60
2019-04-13T05:04:52.561Z,3.20
2019-04-13T05:07:23.093Z,3.50
2019-04-13T05:09:53.493Z,3.40
2019-04-13T05:12:24.160Z,3.00
2019-04-13T05:14:54.515Z,3.20
2019-04-13T05:17:25.180Z,3.30
2019-04-13T05:19:55.543Z,3.60
2019-04-13T05:22:26.858Z,3.60
2019-04-13T05:24:57.725Z,3.40
2019-04-13T05:27:28.155Z,2.90
2019-04-13T05:29:58.635Z,2.70
2019-04-13T05:32:29.003Z,3.20
2019-04-13T05:34:59.652Z,3.40
2019-04-13T05:37:30.057Z,3.30
2019-04-13T05:40:00.767Z,3.20
2019-04-13T05:42:31.425Z,2.90
2019-04-13T05:45:02.166Z,3.30
2019-04-13T05:47:32.605Z,3.30
2019-04-13T05:50:02.996Z,3.10
2019-04-13T05:52:33.407Z,3.50
2019-04-13T05:55:03.876Z,3.70
2019-04-13T05:57:34.426Z,3.40
2019-04-13T06:00:05.911Z,3.00
2019-04-13T06:02:36.571Z,3.30
2019-04-13T06:05:09.034Z,2.90
2019-04-13T06:07:39.695Z,3.20
2019-04-13T06:10:10.440Z,3.20
2019-04-13T06:12:41.083Z,3.40
2019-04-13T06:15:12.568Z,3.10
2019-04-13T06:17:43.243Z,3.50
2019-04-13T06:20:15.366Z,3.70
2019-04-13T06:22:47.055Z,4.10
2019-04-13T06:25:18.153Z,4.20
2019-04-13T06:27:49.326Z,3.50
2019-04-13T06:30:41.831Z,3.40
2019-04-13T06:33:19.404Z,4.20
2019-04-13T06:35:50.027Z,4.50
2019-04-13T06:38:22.514Z,4.20
2019-04-13T06:40:52.896Z,4.00
2019-04-13T06:43:26.853Z,4.00
2019-04-13T06:45:55.886Z,4.50
2019-04-13T06:48:26.275Z,4.80
2019-04-13T06:50:56.905Z,4.90
2019-04-13T06:53:27.288Z,4.40
2019-04-13T06:55:57.632Z,4.80
2019-04-13T06:58:28.016Z,5.20
2019-04-13T07:00:58.361Z,5.30
2019-04-13T07:03:30.006Z,5.30
2019-04-13T07:06:00.770Z,5.50
2019-04-13T07:08:38.906Z,5.50
2019-04-13T07:11:32.040Z,5.70
2019-04-13T07:14:04.389Z,5.90
2019-04-13T07:16:53.702Z,5.80
2019-04-13T07:19:24.315Z,4.80
2019-04-13T07:21:54.977Z,4.50
2019-04-13T07:24:28.379Z,5.00
2019-04-13T07:26:58.665Z,5.20
2019-04-13T07:29:29.255Z,5.50
2019-04-13T07:32:01.672Z,5.60
2019-04-13T07:34:33.961Z,5.90
2019-04-13T07:37:04.187Z,5.90
2019-04-13T07:39:34.522Z,4.90
2019-04-13T07:42:05.624Z,5.00
2019-04-13T07:44:41.313Z,5.50
2019-04-13T07:47:39.917Z,5.30
2019-04-13T07:50:48.014Z,5.50
2019-04-13T07:53:24.089Z,5.40
2019-04-13T07:55:57.539Z,5.40
2019-04-13T07:58:26.567Z,5.10
2019-04-13T08:00:58.766Z,5.60
2019-04-13T08:03:29.669Z,5.40
2019-04-13T08:06:00.067Z,5.70
2019-04-13T08:08:39.799Z,5.60
2019-04-13T08:11:02.761Z,6.20
2019-04-13T08:13:33.407Z,6.50
2019-04-13T08:16:08.312Z,6.60
2019-04-13T08:18:49.514Z,6.30
2019-04-13T08:21:19.868Z,5.80
2019-04-13T08:23:57.566Z,5.70
2019-04-13T08:26:27.886Z,5.50
2019-04-13T08:28:58.249Z,5.80
2019-04-13T08:31:28.727Z,5.40
2019-04-13T08:33:59.436Z,5.50
2019-04-13T08:36:29.847Z,5.30
2019-04-13T08:39:00.430Z,5.40
2019-04-13T08:41:30.776Z,5.20
2019-04-13T08:44:05.683Z,5.60
2019-04-13T08:46:33.555Z,5.60
2019-04-13T08:49:03.892Z,5.90
2019-04-13T08:51:34.608Z,5.50
2019-04-13T08:54:05.140Z,6.20
2019-04-13T08:56:35.675Z,6.60
2019-04-13T08:59:06.747Z,5.30
2019-04-13T09:01:37.400Z,5.30
2019-04-13T09:04:07.850Z,5.20
2019-04-13T09:06:38.202Z,5.70
2019-04-13T09:09:09.369Z,5.30
2019-04-13T09:11:41.001Z,4.30
2019-04-13T09:14:14.034Z,5.00
2019-04-13T09:16:43.593Z,5.50
2019-04-13T09:19:48.777Z,5.60
2019-04-13T09:22:20.845Z,5.70
2019-04-13T09:24:52.820Z,5.60
2019-04-13T09:27:23.508Z,6.10
2019-04-13T09:29:54.308Z,5.70
2019-04-13T09:32:25.238Z,5.90
2019-04-13T09:34:55.660Z,6.40
2019-04-13T09:37:26.394Z,6.90
2019-04-13T09:40:03.163Z,7.10
2019-04-13T09:42:35.739Z,5.90
2019-04-13T09:45:06.709Z,6.80
2019-04-13T09:47:41.831Z,7.10
2019-04-13T09:50:09.509Z,6.90
2019-04-13T09:52:40.454Z,7.00
2019-04-13T09:55:10.885Z,6.90
2019-04-13T09:57:41.236Z,7.30
2019-04-13T10:00:15.161Z,6.80
2019-04-13T10:02:45.833Z,6.30
2019-04-13T10:05:16.343Z,6.40
2019-04-13T10:07:46.947Z,6.90
2019-04-13T10:10:17.389Z,7.30
2019-04-13T10:13:15.083Z,7.90
2019-04-13T10:16:22.450Z,7.60
2019-04-13T10:18:55.362Z,7.10
2019-04-13T10:21:26.442Z,8.70
2019-04-13T10:23:56.827Z,8.80
2019-04-13T10:26:27.290Z,9.20
2019-04-13T10:28:57.668Z,10.30
2019-04-13T10:31:28.026Z,9.60
2019-04-13T10:33:58.466Z,10.00
2019-04-13T10:36:29.108Z,10.50
2019-04-13T10:39:08.256Z,11.10
2019-04-13T10:41:33.248Z,10.60
2019-04-13T10:44:07.799Z,9.20
2019-04-13T10:46:54.204Z,9.50
2019-04-13T10:49:28.630Z,10.70
2019-04-13T10:52:05.156Z,10.30
2019-04-13T10:54:35.612Z,10.30
2019-04-13T10:57:05.952Z,11.50
2019-04-13T10:59:36.292Z,11.60
2019-04-13T11:02:06.915Z,11.70
2019-04-13T11:04:37.542Z,11.50
2019-04-13T11:07:08.213Z,10.40
2019-04-13T11:09:38.535Z,10.10
2019-04-13T11:12:08.906Z,8.00
2019-04-13T11:14:39.561Z,7.90
2019-04-13T11:17:12.673Z,7.20
2019-04-13T11:19:43.272Z,7.80
2019-04-13T11:22:14.363Z,7.90
2019-04-13T11:24:44.995Z,7.90
2019-04-13T11:27:15.653Z,7.70
2019-04-13T11:29:46.867Z,7.20
2019-04-13T11:32:17.251Z,7.40
2019-04-13T11:34:47.893Z,8.40
2019-04-13T11:37:18.346Z,7.90
2019-04-13T11:39:51.087Z,7.90
2019-04-13T11:42:40.725Z,7.80
2019-04-13T11:45:36.610Z,7.80
2019-04-13T11:48:27.034Z,8.60
2019-04-13T11:51:00.967Z,8.40
2019-04-13T11:53:31.403Z,8.30
2019-04-13T11:56:02.324Z,8.60
2019-04-13T11:58:34.223Z,9.40
2019-04-13T12:01:26.740Z,9.70
2019-04-13T12:04:14.984Z,10.30
2019-04-13T12:06:56.677Z,9.10
2019-04-13T12:09:58.337Z,9.40
2019-04-13T12:12:47.683Z,9.10
2019-04-13T12:15:40.022Z,10.30
2019-04-13T12:18:38.396Z,10.50
2019-04-13T12:21:26.235Z,10.50
2019-04-13T12:24:00.215Z,10.50
2019-04-13T12:26:30.926Z,9.80
2019-04-13T12:29:10.049Z,9.60
2019-04-13T12:31:40.562Z,10.30
2019-04-13T12:34:10.916Z,10.20
2019-04-13T12:36:41.289Z,10.20
2019-04-13T12:39:11.628Z,10.30
2019-04-13T12:42:00.928Z,10.20
2019-04-13T12:44:37.558Z,9.80
2019-04-13T12:47:05.333Z,9.80
2019-04-13T12:49:36.356Z,9.50
2019-04-13T12:52:06.951Z,8.90
2019-04-13T12:54:37.991Z,9.10
2019-04-13T12:57:08.681Z,8.60
2019-04-13T12:59:39.075Z,9.20
2019-04-13T13:02:27.013Z,9.50
2019-04-13T13:05:26.067Z,10.00
2019-04-13T13:07:56.664Z,10.00
2019-04-13T13:10:27.239Z,10.20
2019-04-13T13:12:58.571Z,9.80
2019-04-13T13:15:29.303Z,8.90
2019-04-13T13:18:00.222Z,8.40
2019-04-13T13:20:30.600Z,7.90
2019-04-13T13:23:01.276Z,7.70
2019-04-13T13:25:31.629Z,7.50
2019-04-13T13:28:02.630Z,7.70
2019-04-13T13:30:33.395Z,8.00
2019-04-13T13:33:04.017Z,8.00
2019-04-13T13:35:34.490Z,8.00
2019-04-13T13:38:05.317Z,8.10
2019-04-13T13:40:36.067Z,8.30
2019-04-13T13:43:06.435Z,8.40
2019-04-13T13:45:37.024Z,8.90
2019-04-13T13:48:22.444Z,9.00
2019-04-13T13:50:53.230Z,9.60
2019-04-13T13:53:24.198Z,9.90
2019-04-13T13:55:54.648Z,10.00
2019-04-13T13:58:29.933Z,9.80
2019-04-13T14:01:15.796Z,9.80
2019-04-13T14:03:46.248Z,10.20
2019-04-13T14:06:18.506Z,9.90
2019-04-13T14:08:52.955Z,9.50
2019-04-13T14:11:23.783Z,9.70
2019-04-13T14:13:54.138Z,9.80
2019-04-13T14:16:24.910Z,10.50
2019-04-13T14:18:57.588Z,10.60
2019-04-13T14:21:27.748Z,10.70
2019-04-13T14:23:58.443Z,10.70
2019-04-13T14:26:28.819Z,10.60
2019-04-13T14:28:59.706Z,9.90
2019-04-13T14:31:31.438Z,9.80
2019-04-13T14:34:01.856Z,10.30
2019-04-13T14:36:35.322Z,10.80
2019-04-13T14:39:07.008Z,10.90
2019-04-13T14:41:41.558Z,11.00
2019-04-13T14:44:09.744Z,11.40
2019-04-13T14:46:40.300Z,11.60
2019-04-13T14:49:11.023Z,12.40
2019-04-13T14:51:41.371Z,12.00
2019-04-13T14:54:11.729Z,11.40
2019-04-13T14:56:42.206Z,11.10
2019-04-13T14:59:16.568Z,10.20
2019-04-13T15:01:44.576Z,10.10
2019-04-13T15:04:14.940Z,10.80
2019-04-13T15:06:45.349Z,10.40
2019-04-13T15:09:17.577Z,9.70
2019-04-13T15:11:47.763Z,9.70
2019-04-13T15:14:19.357Z,9.80
2019-04-13T15:16:51.057Z,9.50
2019-04-13T15:19:33.460Z,8.90
2019-04-13T15:21:56.795Z,8.50
2019-04-13T15:24:28.520Z,8.10
2019-04-13T15:26:58.941Z,7.50
2019-04-13T15:29:32.856Z,7.00
2019-04-13T15:32:02.302Z,6.90
2019-04-13T15:34:34.993Z,6.90
2019-04-13T15:37:07.126Z,6.90
2019-04-13T15:39:40.149Z,6.90
2019-04-13T15:42:16.836Z,6.80
2019-04-13T15:44:43.576Z,7.00
2019-04-13T15:47:16.917Z,6.50
2019-04-13T15:49:45.917Z,6.40
2019-04-13T15:52:16.247Z,6.80
2019-04-13T15:54:47.386Z,6.90
2019-04-13T15:57:18.205Z,6.90
2019-04-13T16:00:00.883Z,7.30
2019-04-13T16:02:31.389Z,7.40
2019-04-13T16:05:02.706Z,7.60
2019-04-13T16:07:34.342Z,7.70
2019-04-13T16:10:29.277Z,7.70
2019-04-13T16:13:02.457Z,8.00
2019-04-13T16:15:36.062Z,8.10
2019-04-13T16:18:08.893Z,7.90
2019-04-13T16:20:40.056Z,7.70
2019-04-13T16:23:11.140Z,7.80
2019-04-13T16:25:42.451Z,7.10
2019-04-13T16:28:35.171Z,6.90
2019-04-13T16:31:24.703Z,6.80
2019-04-13T16:34:14.232Z,7.00
2019-04-13T16:36:50.103Z,6.60
2019-04-13T16:39:23.188Z,6.60
2019-04-13T16:42:01.448Z,7.00
2019-04-13T16:44:35.308Z,7.20
2019-04-13T16:47:18.780Z,7.10
2019-04-13T16:49:56.672Z,7.60
2019-04-13T16:52:55.115Z,7.80
2019-04-13T16:55:37.439Z,8.00
2019-04-13T16:58:21.557Z,7.20
2019-04-13T17:01:07.395Z,7.30
2019-04-13T17:03:43.760Z,6.50
2019-04-13T17:06:14.747Z,7.10
2019-04-13T17:08:45.586Z,7.50
2019-04-13T17:11:17.121Z,7.60
2019-04-13T17:13:47.660Z,7.20
2019-04-13T17:16:19.090Z,7.20
2019-04-13T17:19:09.785Z,7.80
2019-04-13T17:21:45.849Z,7.60
2019-04-13T17:24:30.279Z,8.10
2019-04-13T17:27:35.790Z,8.20
2019-04-13T17:30:17.411Z,8.00
2019-04-13T17:32:56.972Z,8.00
2019-04-13T17:35:28.980Z,8.30
2019-04-13T17:37:59.615Z,8.20
2019-04-13T17:40:36.376Z,7.70
2019-04-13T17:43:32.292Z,7.20
2019-04-13T17:46:13.785Z,6.60
2019-04-13T17:49:09.626Z,6.20
2019-04-13T17:51:58.370Z,5.90
2019-04-13T17:54:43.842Z,5.80
2019-04-13T17:57:32.915Z,5.80
2019-04-13T18:00:24.339Z,5.90
2019-04-13T18:03:13.440Z,6.10
2019-04-13T18:06:09.309Z,6.20
2019-04-13T18:09:03.645Z,6.10
2019-04-13T18:11:51.943Z,6.20
2019-04-13T18:14:29.314Z,6.30
2019-04-13T18:17:20.647Z,6.30
2019-04-13T18:19:51.021Z,6.30
2019-04-13T18:22:23.020Z,6.40
2019-04-13T18:24:53.590Z,6.50
2019-04-13T18:27:23.964Z,6.60
2019-04-13T18:30:02.644Z,6.60
2019-04-13T18:32:28.601Z,6.60
2019-04-13T18:35:00.412Z,6.60
2019-04-13T18:37:36.526Z,6.60
2019-04-13T18:40:09.261Z,6.60
2019-04-13T18:42:53.448Z,6.60
2019-04-13T18:45:13.820Z,6.50
2019-04-13T18:47:44.972Z,6.50
2019-04-13T18:50:16.031Z,6.40
2019-04-13T18:52:50.902Z,6.20
2019-04-13T18:55:22.295Z,6.30
2019-04-13T18:57:52.777Z,6.20
2019-04-13T19:00:23.615Z,6.20
2019-04-13T19:03:00.694Z,6.20
2019-04-13T19:05:33.648Z,6.00
2019-04-13T19:11:33.875Z,6.10
2019-04-13T19:14:04.780Z,6.20
2019-04-13T19:16:35.558Z,6.30
2019-04-13T19:19:13.742Z,6.30
2019-04-13T19:21:49.094Z,6.20
2019-04-13T19:24:20.078Z,5.90
2019-04-13T19:26:50.785Z,6.10
2019-04-13T19:29:21.171Z,6.20
2019-04-13T19:31:51.980Z,6.20
2019-04-13T19:34:22.394Z,6.10
2019-04-13T19:36:53.827Z,6.10
2019-04-13T19:39:24.595Z,5.70
2019-04-13T19:41:55.552Z,5.50
2019-04-13T19:44:26.033Z,5.80
2019-04-13T19:46:56.361Z,5.90
2019-04-13T19:49:27.192Z,6.00
2019-04-13T19:52:16.940Z,4.90
2019-04-13T19:54:59.300Z,5.30
2019-04-13T19:57:32.140Z,5.90
2019-04-13T20:00:02.583Z,5.90
2019-04-13T20:02:33.390Z,6.00
2019-04-13T20:05:03.784Z,5.70
2019-04-13T20:07:34.914Z,6.10
2019-04-13T20:10:05.514Z,6.00
2019-04-13T20:12:36.215Z,6.20
2019-04-13T20:15:07.627Z,5.90
2019-04-13T20:17:38.121Z,6.10
2019-04-13T20:20:09.330Z,6.10
2019-04-13T20:22:41.412Z,5.90
2019-04-13T20:25:13.553Z,5.90
2019-04-13T20:27:47.751Z,6.10
2019-04-13T20:30:19.466Z,6.20
2019-04-13T20:33:13.553Z,6.20
2019-04-13T20:35:56.907Z,5.80
2019-04-13T20:38:19.305Z,5.80
2019-04-13T20:41:08.429Z,5.80
2019-04-13T20:43:48.681Z,6.10
2019-04-13T20:46:17.752Z,5.80
2019-04-13T20:48:48.943Z,5.90
2019-04-13T20:51:19.346Z,6.00
2019-04-13T20:53:49.799Z,6.10
2019-04-13T20:56:20.826Z,5.90
2019-04-13T20:58:51.332Z,6.00
2019-04-13T21:01:21.665Z,6.10
2019-04-13T21:03:53.441Z,6.00
2019-04-13T21:06:28.440Z,5.90
2019-04-13T21:08:59.858Z,6.00
2019-04-13T21:11:31.201Z,5.80
2019-04-13T21:14:09.335Z,5.90
2019-04-13T21:16:34.520Z,5.40
2019-04-13T21:19:04.905Z,5.60
2019-04-13T21:21:35.219Z,5.50
2019-04-13T21:24:06.695Z,5.40
2019-04-13T21:26:37.615Z,5.30
2019-04-13T21:29:08.921Z,5.30
2019-04-13T21:31:39.260Z,4.90
2019-04-13T21:34:11.408Z,5.30
2019-04-13T21:36:42.066Z,5.40
2019-04-13T21:39:13.478Z,5.50
2019-04-13T21:41:43.822Z,5.30
2019-04-13T21:44:23.725Z,5.20
2019-04-13T21:46:48.195Z,5.10
2019-04-13T21:49:20.690Z,5.20
2019-04-13T21:52:00.322Z,5.00
2019-04-13T21:54:34.837Z,4.90
2019-04-13T21:57:06.665Z,5.10
2019-04-13T21:59:37.136Z,5.30
2019-04-13T22:02:35.390Z,5.50
2019-04-13T22:05:07.912Z,5.50
2019-04-13T22:07:39.518Z,5.40
2019-04-13T22:10:11.486Z,4.70
2019-04-13T22:12:42.245Z,5.00
2019-04-13T22:15:15.207Z,5.10
2019-04-13T22:17:46.420Z,5.30
2019-04-13T22:20:16.947Z,5.20
2019-04-13T22:22:48.899Z,5.50
2019-04-13T22:25:19.332Z,5.60
2019-04-13T22:27:58.027Z,5.70
2019-04-13T22:30:23.475Z,5.70
2019-04-13T22:32:53.845Z,5.60
2019-04-13T22:35:32.485Z,5.70
2019-04-13T22:38:03.071Z,5.70
2019-04-13T22:40:34.243Z,5.60
2019-04-13T22:43:06.770Z,5.50
2019-04-13T22:45:38.310Z,5.60
2019-04-13T22:48:35.568Z,5.30
2019-04-13T22:51:25.058Z,5.40
2019-04-13T22:54:16.651Z,5.30
2019-04-13T22:56:52.859Z,5.30
2019-04-13T22:59:24.819Z,5.30
2019-04-13T23:02:23.460Z,5.50
2019-04-13T23:04:54.201Z,5.50
2019-04-13T23:07:26.114Z,5.70
2019-04-13T23:09:56.634Z,5.70
2019-04-13T23:12:27.323Z,5.70
2019-04-13T23:15:08.578Z,5.70
2019-04-13T23:17:31.168Z,5.70
2019-04-13T23:20:03.196Z,5.70
2019-04-13T23:22:34.266Z,5.70
2019-04-13T23:25:07.418Z,5.40
2019-04-13T23:27:37.858Z,5.60
2019-04-13T23:30:09.571Z,5.50
2019-04-13T23:32:40.152Z,5.50
2019-04-13T23:35:12.631Z,5.60
2019-04-13T23:37:43.202Z,5.60
2019-04-13T23:40:14.226Z,5.60
2019-04-13T23:42:46.151Z,5.70
2019-04-13T23:45:25.917Z,5.60
2019-04-13T23:47:53.775Z,5.60
2019-04-13T23:50:24.436Z,5.70
2019-04-13T23:52:54.811Z,5.70
2019-04-13T23:56:02.493Z,5.60
2019-04-13T23:58:50.037Z,5.60
